Pagina principale
METAR-TAF:

METAR-TAF

Aeroporti :

Aeroporto di Gran Canaria

Gran Canaria, Spagna

latitudine: 27-56N, longitudine: 015-23W, altezza: 23 m

Osservazione

Il bollettino è stato emesso 10 minuti fa, alle 01:30 UTC
Vento 4 kt da nord-ovest, variando fra ovest e nord
Temperature 20°C
Umidità 73%
Pressione 1013 hPa
Visibilità 10 km o più
Nubi sparse ad un'altezza di 3000 ft

METAR: GCLP 310130Z 31004KT 280V010 9999 SCT030 20/15 Q1013 NOSIG

Ora: 02:40 (01:40 UTC)

Previsione

Il bollettino è stato emesso 5 ore e 40 minuti fa, alle 20:00 UTC
Previsione valida dal 30 alle 21 UTC al 31 alle 21 UTC
Vento 15 kt da nord
Visibilità 10 km o più
Nubi sparse ad un'altezza di 3500 ft
Temporaneamente
dal 31 alle 00 UTC al 31 alle 08 UTC
Vento 5 kt da ovest/nord-ovest

TAF: GCLP 302000Z 3021/3121 01015KT 9999 SCT035 TX25/3114Z TN20/3106Z TEMPO 3100/3108 30005KT

Osservazioni e previsioni meteorologiche di più di 4000 aeroporti (messaggi METAR e TAF).

Le stazioni disponibili sono rappresentate dai dischi gialli e rossi sulla carta.

Puntare il mouse per vedere il nome della stazione.

Clicca sopra per visualizzare le osservazioni e previsioni meteorologiche.

Per cambiare la mappa : fare clic sui pulsanti verdi con una croce nera per ingrandire, il pulsante verde con un trattino per diminuire, o sulla freccia verde per le mappe adiacenti.


METAR-TAF: